Time;durP1;ratioP1;P1;durP2;ratioP2;P2;SDS_P1;SDS_P2;PMS_P1;PMS_P2;Temp;Humidity;BMP_temperature;BMP_pressure;BME280_temperature;BME280_humidity;BME280_pressure;Samples;Min_cycle;Max_cycle;Signal;HPM_P1;HPM_P2
2023/08/04 00:02:11;;;;;;;6.38;3.15;;;;;;;;;;5075311;28;20097;-76
2023/08/04 00:04:36;;;;;;;7.80;3.28;;;;;;;;;;5079349;28;20024;-77
2023/08/04 00:07:03;;;;;;;9.38;3.15;;;;;;;;;;5092286;28;20026;-76
2023/08/04 00:09:28;;;;;;;7.15;3.03;;;;;;;;;;5100573;28;20020;-76
2023/08/04 00:11:53;;;;;;;7.60;2.97;;;;;;;;;;5089500;28;20043;-77
2023/08/04 00:14:19;;;;;;;9.68;3.40;;;;;;;;;;5090354;28;20053;-76
2023/08/04 00:16:44;;;;;;;7.60;3.13;;;;;;;;;;5091498;28;20099;-76
2023/08/04 00:19:10;;;;;;;9.05;3.08;;;;;;;;;;5097152;28;20023;-76
2023/08/04 00:21:35;;;;;;;5.20;2.88;;;;;;;;;;5093230;28;20437;-76
2023/08/04 00:24:00;;;;;;;6.60;3.00;;;;;;;;;;5094669;28;20030;-76
2023/08/04 00:26:26;;;;;;;6.60;3.00;;;;;;;;;;5068909;28;20016;-76
2023/08/04 00:28:52;;;;;;;6.80;2.70;;;;;;;;;;5089338;28;20121;-76
2023/08/04 00:31:17;;;;;;;7.22;2.60;;;;;;;;;;5083386;28;20490;-76
2023/08/04 00:33:43;;;;;;;5.70;2.72;;;;;;;;;;5095966;28;20123;-76
2023/08/04 00:36:08;;;;;;;6.32;2.85;;;;;;;;;;5094181;28;20016;-76
2023/08/04 00:38:33;;;;;;;5.07;2.70;;;;;;;;;;5094427;28;20054;-76
2023/08/04 00:40:59;;;;;;;6.70;3.05;;;;;;;;;;5096645;28;20020;-76
2023/08/04 00:43:24;;;;;;;7.47;2.80;;;;;;;;;;5095971;28;20107;-76
2023/08/04 00:45:50;;;;;;;7.43;3.00;;;;;;;;;;5094911;28;20490;-77
2023/08/04 00:48:15;;;;;;;6.55;3.05;;;;;;;;;;5082402;28;20547;-77
2023/08/04 00:50:41;;;;;;;6.28;3.08;;;;;;;;;;5091488;28;20021;-76
2023/08/04 00:53:09;;;;;;;6.05;2.72;;;;;;;;;;5097172;28;20486;-76
2023/08/04 00:55:35;;;;;;;5.68;2.50;;;;;;;;;;5100321;28;20020;-76
2023/08/04 00:58:00;;;;;;;7.00;2.85;;;;;;;;;;5094642;28;20028;-77
2023/08/04 01:00:26;;;;;;;5.30;2.78;;;;;;;;;;5095250;28;20471;-76
2023/08/04 01:02:51;;;;;;;6.35;3.42;;;;;;;;;;5093685;28;20472;-76
2023/08/04 01:05:17;;;;;;;6.68;3.20;;;;;;;;;;5100938;28;20029;-76
2023/08/04 01:07:56;;;;;;;7.38;2.97;;;;;;;;;;5094096;28;20085;-76
2023/08/04 01:10:28;;;;;;;6.30;2.80;;;;;;;;;;5091478;28;20016;-77
2023/08/04 01:13:00;;;;;;;6.70;2.97;;;;;;;;;;5102387;28;20024;-77
2023/08/04 01:15:26;;;;;;;5.97;3.00;;;;;;;;;;5092890;28;20735;-76
2023/08/04 01:17:54;;;;;;;8.13;3.10;;;;;;;;;;5089735;28;20330;-77
2023/08/04 01:20:20;;;;;;;6.80;3.05;;;;;;;;;;5092634;28;20560;-76
2023/08/04 01:22:46;;;;;;;6.35;2.97;;;;;;;;;;5092125;28;20024;-76
2023/08/04 01:25:11;;;;;;;8.38;3.30;;;;;;;;;;5090946;28;20119;-77
2023/08/04 01:27:48;;;;;;;8.25;3.10;;;;;;;;;;5102967;28;20052;-76
2023/08/04 01:30:20;;;;;;;6.32;2.83;;;;;;;;;;5089487;28;20027;-76
2023/08/04 01:32:46;;;;;;;6.95;3.25;;;;;;;;;;5091814;28;20466;-76
2023/08/04 01:35:13;;;;;;;8.75;3.22;;;;;;;;;;5084650;28;20028;-76
2023/08/04 01:37:38;;;;;;;7.07;3.00;;;;;;;;;;5093201;28;20031;-76
2023/08/04 01:40:04;;;;;;;8.35;3.45;;;;;;;;;;5088091;28;20024;-77
2023/08/04 01:42:30;;;;;;;7.95;3.30;;;;;;;;;;5094035;28;20090;-76
2023/08/04 01:44:55;;;;;;;7.57;3.35;;;;;;;;;;5091207;28;20415;-76
2023/08/04 01:47:20;;;;;;;9.27;3.40;;;;;;;;;;5109889;28;20012;-76
2023/08/04 01:49:46;;;;;;;6.80;3.03;;;;;;;;;;5087158;28;20510;-76
2023/08/04 01:52:11;;;;;;;6.95;3.17;;;;;;;;;;5090864;28;20118;-77
2023/08/04 01:54:36;;;;;;;5.75;2.80;;;;;;;;;;5087916;28;20623;-76
2023/08/04 01:57:02;;;;;;;6.22;3.05;;;;;;;;;;5095453;28;20028;-76
2023/08/04 01:59:28;;;;;;;4.45;2.60;;;;;;;;;;5092557;28;20020;-76
2023/08/04 02:01:53;;;;;;;7.30;2.95;;;;;;;;;;5084683;28;20021;-76
2023/08/04 02:04:18;;;;;;;7.55;3.10;;;;;;;;;;5092720;28;20510;-76
2023/08/04 02:06:44;;;;;;;6.47;3.10;;;;;;;;;;5092538;28;20024;-76
2023/08/04 02:09:09;;;;;;;8.35;3.20;;;;;;;;;;5084115;28;20020;-76
2023/08/04 02:11:35;;;;;;;7.82;3.30;;;;;;;;;;5084938;28;20107;-77
2023/08/04 02:14:00;;;;;;;6.97;3.30;;;;;;;;;;5094063;28;20016;-76
2023/08/04 02:16:26;;;;;;;8.57;3.55;;;;;;;;;;5086338;28;20069;-76
2023/08/04 02:19:00;;;;;;;7.65;3.00;;;;;;;;;;5093517;28;20024;-76
2023/08/04 02:21:26;;;;;;;11.18;4.18;;;;;;;;;;5093450;28;20023;-76
2023/08/04 02:23:51;;;;;;;7.47;3.38;;;;;;;;;;5085746;28;20024;-86
2023/08/04 02:26:16;;;;;;;5.32;3.13;;;;;;;;;;5093664;28;20016;-87
2023/08/04 02:28:42;;;;;;;7.93;3.13;;;;;;;;;;5091140;28;20028;-86
2023/08/04 02:31:07;;;;;;;8.55;3.25;;;;;;;;;;5094290;28;20020;-87
2023/08/04 02:33:32;;;;;;;7.20;3.67;;;;;;;;;;5091902;28;20027;-86
2023/08/04 02:36:02;;;;;;;5.90;3.13;;;;;;;;;;5082362;28;20029;-85
2023/08/04 02:38:28;;;;;;;7.32;3.45;;;;;;;;;;5092089;28;20102;-87
2023/08/04 02:40:53;;;;;;;9.18;3.33;;;;;;;;;;5083804;28;20055;-86
2023/08/04 02:43:19;;;;;;;6.95;3.40;;;;;;;;;;5088368;28;20384;-87
2023/08/04 02:45:50;;;;;;;11.38;3.20;;;;;;;;;;5088564;28;20454;-86
2023/08/04 02:48:15;;;;;;;7.50;2.92;;;;;;;;;;5095714;28;20395;-86
2023/08/04 02:50:40;;;;;;;7.53;3.20;;;;;;;;;;5091815;28;20026;-86
2023/08/04 02:53:06;;;;;;;6.85;3.25;;;;;;;;;;5091601;28;20027;-87
2023/08/04 02:55:31;;;;;;;8.35;2.97;;;;;;;;;;5090333;28;20027;-87
2023/08/04 02:57:56;;;;;;;8.50;3.38;;;;;;;;;;5089366;28;20017;-87
2023/08/04 03:00:22;;;;;;;8.65;4.00;;;;;;;;;;5092012;28;20048;-86
2023/08/04 03:02:47;;;;;;;7.72;3.70;;;;;;;;;;5091372;28;20071;-86
2023/08/04 03:05:13;;;;;;;8.52;3.10;;;;;;;;;;5093049;28;20023;-87
2023/08/04 03:07:39;;;;;;;7.07;3.40;;;;;;;;;;5089746;28;20016;-86
2023/08/04 03:10:05;;;;;;;11.73;3.60;;;;;;;;;;5090080;28;20027;-87
2023/08/04 03:12:30;;;;;;;7.35;3.55;;;;;;;;;;5091513;28;20028;-86
2023/08/04 03:14:56;;;;;;;6.68;3.20;;;;;;;;;;5089266;28;20076;-86
2023/08/04 03:17:21;;;;;;;6.72;3.38;;;;;;;;;;5089690;28;20020;-85
2023/08/04 03:19:46;;;;;;;9.15;3.50;;;;;;;;;;5100103;28;20479;-85
2023/08/04 03:22:12;;;;;;;7.90;3.40;;;;;;;;;;5085610;28;20017;-86
2023/08/04 03:24:37;;;;;;;6.93;3.28;;;;;;;;;;5089873;28;20060;-87
2023/08/04 03:27:03;;;;;;;5.80;2.90;;;;;;;;;;5090624;28;20035;-87
2023/08/04 03:29:28;;;;;;;6.88;3.60;;;;;;;;;;5090692;28;20491;-85
2023/08/04 03:31:54;;;;;;;6.22;3.30;;;;;;;;;;5085166;28;20392;-87
2023/08/04 03:34:19;;;;;;;6.90;3.00;;;;;;;;;;5083075;28;20039;-82
2023/08/04 03:36:44;;;;;;;7.03;3.50;;;;;;;;;;5091129;28;20475;-85
2023/08/04 03:39:10;;;;;;;8.20;3.10;;;;;;;;;;5086099;28;20028;-84
2023/08/04 03:41:35;;;;;;;6.72;3.08;;;;;;;;;;5092364;28;20059;-86
2023/08/04 03:44:01;;;;;;;5.43;3.00;;;;;;;;;;5082640;28;20016;-85
2023/08/04 03:46:26;;;;;;;6.28;3.55;;;;;;;;;;5089262;28;20024;-85
2023/08/04 03:48:51;;;;;;;5.88;3.05;;;;;;;;;;5086200;28;20035;-86
2023/08/04 03:51:17;;;;;;;7.28;3.20;;;;;;;;;;5090071;28;20024;-85
2023/08/04 03:53:43;;;;;;;6.70;3.42;;;;;;;;;;5095182;28;20028;-85
2023/08/04 03:56:09;;;;;;;6.70;3.22;;;;;;;;;;5092571;28;20108;-86
2023/08/04 03:58:34;;;;;;;12.27;3.53;;;;;;;;;;5090890;28;20119;-86
2023/08/04 04:00:59;;;;;;;7.97;3.33;;;;;;;;;;5086574;28;20035;-85
2023/08/04 04:03:25;;;;;;;5.80;2.92;;;;;;;;;;5107535;28;20023;-86
2023/08/04 04:05:50;;;;;;;5.88;3.08;;;;;;;;;;5080420;28;20122;-85
2023/08/04 04:08:15;;;;;;;6.03;3.22;;;;;;;;;;5087710;28;20365;-86
2023/08/04 04:10:41;;;;;;;5.60;3.20;;;;;;;;;;5087974;28;20108;-85
2023/08/04 04:13:06;;;;;;;7.97;3.50;;;;;;;;;;5091003;28;20392;-85
2023/08/04 04:15:32;;;;;;;6.82;3.88;;;;;;;;;;5081932;28;20024;-86
2023/08/04 04:17:57;;;;;;;6.63;3.63;;;;;;;;;;5083680;28;20024;-86
2023/08/04 04:20:23;;;;;;;6.65;3.30;;;;;;;;;;5105803;28;20026;-85
2023/08/04 04:22:48;;;;;;;6.95;3.25;;;;;;;;;;5084764;28;20054;-85
2023/08/04 04:25:14;;;;;;;5.75;3.40;;;;;;;;;;5095037;28;20103;-86
2023/08/04 04:27:39;;;;;;;5.45;2.90;;;;;;;;;;5084058;28;20021;-86
2023/08/04 04:30:05;;;;;;;5.93;3.30;;;;;;;;;;5080648;28;20020;-86
2023/08/04 04:32:30;;;;;;;8.45;3.70;;;;;;;;;;5086423;28;20052;-85
2023/08/04 04:34:56;;;;;;;7.15;3.45;;;;;;;;;;5090661;28;20054;-84
2023/08/04 04:37:21;;;;;;;7.93;3.65;;;;;;;;;;5087175;28;20104;-86
2023/08/04 04:39:46;;;;;;;7.32;3.83;;;;;;;;;;5091688;28;20055;-85
2023/08/04 04:42:12;;;;;;;7.03;3.55;;;;;;;;;;5086287;28;20024;-86
2023/08/04 04:44:37;;;;;;;6.38;3.10;;;;;;;;;;5093924;28;20114;-85
2023/08/04 04:47:04;;;;;;;8.77;4.10;;;;;;;;;;5088442;28;20013;-86
2023/08/04 04:49:30;;;;;;;7.78;3.92;;;;;;;;;;5094209;28;20549;-86
2023/08/04 04:51:55;;;;;;;6.63;3.38;;;;;;;;;;5077524;28;20032;-85
2023/08/04 04:54:21;;;;;;;5.47;3.17;;;;;;;;;;5101845;28;20024;-83
2023/08/04 04:56:48;;;;;;;5.82;3.30;;;;;;;;;;5094292;28;20472;-83
2023/08/04 04:59:13;;;;;;;7.40;3.35;;;;;;;;;;5094368;28;20110;-86
2023/08/04 05:01:38;;;;;;;4.55;3.03;;;;;;;;;;5098143;28;20593;-85
2023/08/04 05:04:04;;;;;;;9.43;3.40;;;;;;;;;;5093317;28;20110;-86
2023/08/04 05:06:29;;;;;;;7.65;3.65;;;;;;;;;;5091239;28;20388;-86
2023/08/04 05:08:55;;;;;;;7.88;3.80;;;;;;;;;;5094011;28;20026;-85
2023/08/04 05:11:20;;;;;;;7.82;4.40;;;;;;;;;;5088701;28;20027;-85
2023/08/04 05:13:46;;;;;;;9.40;3.33;;;;;;;;;;5076035;28;20020;-84
2023/08/04 05:16:11;;;;;;;9.48;3.83;;;;;;;;;;5089071;28;20024;-86
2023/08/04 05:18:36;;;;;;;6.18;3.40;;;;;;;;;;5092572;28;20016;-85
2023/08/04 05:21:03;;;;;;;7.70;3.55;;;;;;;;;;5089063;28;20032;-85
2023/08/04 05:23:28;;;;;;;5.22;3.00;;;;;;;;;;5089700;28;20020;-85
2023/08/04 05:25:54;;;;;;;6.20;3.35;;;;;;;;;;5090577;28;20085;-85
2023/08/04 05:28:32;;;;;;;7.50;3.30;;;;;;;;;;5088419;28;20106;-85
2023/08/04 05:30:59;;;;;;;7.57;3.40;;;;;;;;;;5087309;28;20495;-85
2023/08/04 05:33:26;;;;;;;7.03;3.63;;;;;;;;;;5086350;28;20039;-85
2023/08/04 05:35:51;;;;;;;7.45;3.60;;;;;;;;;;5085448;28;20391;-86
2023/08/04 05:38:17;;;;;;;8.02;3.72;;;;;;;;;;5086947;28;20024;-84
2023/08/04 05:40:44;;;;;;;10.50;4.20;;;;;;;;;;5086783;28;20481;-86
2023/08/04 05:43:11;;;;;;;9.07;4.50;;;;;;;;;;5091396;28;20496;-85
2023/08/04 05:45:46;;;;;;;7.80;4.22;;;;;;;;;;5093331;28;20460;-86
2023/08/04 05:48:12;;;;;;;9.10;3.92;;;;;;;;;;5093202;28;20084;-86
2023/08/04 05:50:38;;;;;;;10.35;4.03;;;;;;;;;;5092147;28;20024;-85
2023/08/04 05:53:03;;;;;;;9.38;4.15;;;;;;;;;;5073492;28;20039;-86
2023/08/04 05:55:29;;;;;;;14.88;4.65;;;;;;;;;;5091861;28;20540;-76
2023/08/04 05:57:55;;;;;;;7.88;3.92;;;;;;;;;;5094100;28;20035;-76
2023/08/04 06:00:21;;;;;;;11.27;4.10;;;;;;;;;;5096124;28;20391;-76
2023/08/04 06:02:46;;;;;;;6.20;3.72;;;;;;;;;;5094578;28;20028;-75
2023/08/04 06:05:12;;;;;;;7.93;3.67;;;;;;;;;;5090026;28;20024;-75
2023/08/04 06:07:39;;;;;;;6.15;3.67;;;;;;;;;;5090064;28;20094;-76
2023/08/04 06:10:05;;;;;;;9.82;3.80;;;;;;;;;;5100429;28;20028;-76
2023/08/04 06:12:31;;;;;;;7.05;3.80;;;;;;;;;;5086419;28;20017;-76
2023/08/04 06:14:56;;;;;;;9.73;4.03;;;;;;;;;;5095356;28;20027;-76
2023/08/04 06:17:21;;;;;;;10.27;3.90;;;;;;;;;;5102697;28;20026;-76
2023/08/04 06:19:47;;;;;;;8.18;3.38;;;;;;;;;;5102048;28;20024;-76
2023/08/04 06:22:15;;;;;;;8.15;3.00;;;;;;;;;;5090515;28;20016;-75
2023/08/04 06:24:41;;;;;;;12.43;3.40;;;;;;;;;;5101486;28;20454;-76
2023/08/04 06:27:07;;;;;;;8.40;3.85;;;;;;;;;;5089674;28;20357;-76
2023/08/04 06:29:34;;;;;;;6.38;3.22;;;;;;;;;;5102554;28;20020;-76
2023/08/04 06:31:59;;;;;;;4.38;2.63;;;;;;;;;;5088828;28;20020;-76
2023/08/04 06:34:25;;;;;;;6.65;2.78;;;;;;;;;;5088892;28;20035;-76
2023/08/04 06:36:50;;;;;;;7.25;2.78;;;;;;;;;;5099651;28;20145;-76
2023/08/04 06:39:16;;;;;;;7.88;3.13;;;;;;;;;;5088638;28;20028;-75
2023/08/04 06:41:42;;;;;;;7.70;2.97;;;;;;;;;;5089871;28;20124;-76
2023/08/04 06:44:07;;;;;;;5.78;2.85;;;;;;;;;;5094437;28;20051;-75
2023/08/04 06:46:33;;;;;;;5.35;2.90;;;;;;;;;;5087246;28;20039;-76
2023/08/04 06:48:58;;;;;;;7.35;2.85;;;;;;;;;;5096679;28;20028;-76
2023/08/04 06:51:23;;;;;;;6.55;2.80;;;;;;;;;;5080814;28;20093;-76
2023/08/04 06:53:49;;;;;;;7.10;2.95;;;;;;;;;;5091915;28;20023;-76
2023/08/04 06:56:14;;;;;;;9.23;3.05;;;;;;;;;;5091767;28;20118;-76
2023/08/04 06:58:40;;;;;;;7.68;3.35;;;;;;;;;;5091786;28;20028;-76
2023/08/04 07:01:05;;;;;;;6.40;3.00;;;;;;;;;;5087704;28;20024;-76
2023/08/04 07:03:30;;;;;;;6.32;3.00;;;;;;;;;;5096027;28;20015;-86
2023/08/04 07:05:56;;;;;;;5.28;3.20;;;;;;;;;;5091225;28;20020;-87
2023/08/04 07:08:21;;;;;;;7.70;3.38;;;;;;;;;;5091773;28;20161;-86
2023/08/04 07:10:47;;;;;;;8.07;3.20;;;;;;;;;;5084913;28;20027;-86
2023/08/04 07:13:12;;;;;;;9.05;3.38;;;;;;;;;;5081546;28;20078;-87
2023/08/04 07:15:38;;;;;;;5.43;2.90;;;;;;;;;;5084119;28;20024;-86
2023/08/04 07:18:03;;;;;;;5.90;3.20;;;;;;;;;;5080701;28;20028;-87
2023/08/04 07:20:30;;;;;;;7.60;3.20;;;;;;;;;;5086114;28;20114;-86
2023/08/04 07:22:55;;;;;;;10.27;3.88;;;;;;;;;;5092427;28;20028;-86
2023/08/04 07:25:21;;;;;;;6.72;2.97;;;;;;;;;;5082284;28;20047;-85
2023/08/04 07:27:46;;;;;;;9.60;2.95;;;;;;;;;;5080745;28;20046;-86
2023/08/04 07:30:13;;;;;;;5.43;2.95;;;;;;;;;;5087180;28;20020;-86
2023/08/04 07:32:39;;;;;;;7.43;3.03;;;;;;;;;;5076581;28;20458;-86
2023/08/04 07:35:04;;;;;;;8.05;2.90;;;;;;;;;;5080655;28;20110;-87
2023/08/04 07:37:30;;;;;;;6.85;2.88;;;;;;;;;;5084616;28;20044;-86
2023/08/04 07:39:55;;;;;;;6.50;3.05;;;;;;;;;;5090894;28;20064;-86
2023/08/04 07:42:20;;;;;;;9.30;2.70;;;;;;;;;;5092689;28;20472;-84
2023/08/04 07:44:46;;;;;;;7.10;2.60;;;;;;;;;;5089187;28;20064;-86
2023/08/04 07:47:11;;;;;;;7.03;2.60;;;;;;;;;;5084133;28;20012;-87
2023/08/04 07:49:36;;;;;;;8.00;3.28;;;;;;;;;;5089978;28;20024;-86
2023/08/04 07:52:02;;;;;;;5.15;2.15;;;;;;;;;;5091216;28;20480;-87
2023/08/04 07:54:27;;;;;;;7.43;2.65;;;;;;;;;;5091165;28;20028;-86
2023/08/04 07:56:53;;;;;;;7.90;2.83;;;;;;;;;;5088271;28;20025;-86
2023/08/04 07:59:18;;;;;;;4.18;2.20;;;;;;;;;;5089311;28;20105;-86
2023/08/04 08:01:43;;;;;;;4.45;2.15;;;;;;;;;;5091124;28;20119;-87
2023/08/04 08:04:09;;;;;;;4.93;2.35;;;;;;;;;;5087282;28;20027;-87
2023/08/04 08:06:36;;;;;;;7.15;2.40;;;;;;;;;;5079886;28;20069;-87
2023/08/04 08:09:02;;;;;;;6.15;2.17;;;;;;;;;;5090977;28;20023;-87
2023/08/04 08:11:27;;;;;;;5.50;2.00;;;;;;;;;;5090709;28;20520;-87
2023/08/04 08:13:53;;;;;;;6.13;2.20;;;;;;;;;;5093302;28;20024;-76
2023/08/04 08:16:18;;;;;;;5.43;2.05;;;;;;;;;;5086395;28;20102;-76
2023/08/04 08:18:44;;;;;;;6.05;1.92;;;;;;;;;;5094955;28;20063;-76
2023/08/04 08:21:10;;;;;;;5.85;1.88;;;;;;;;;;5095012;28;20020;-76
2023/08/04 08:23:36;;;;;;;8.00;2.60;;;;;;;;;;5095956;28;20107;-77
2023/08/04 08:26:03;;;;;;;4.47;2.17;;;;;;;;;;5086124;28;20031;-76
2023/08/04 08:28:28;;;;;;;5.30;2.00;;;;;;;;;;5084565;28;20387;-76
2023/08/04 08:30:54;;;;;;;4.43;1.90;;;;;;;;;;5093261;28;20047;-76
2023/08/04 08:33:20;;;;;;;6.38;2.45;;;;;;;;;;5100814;28;20052;-76
2023/08/04 08:35:45;;;;;;;3.90;1.98;;;;;;;;;;5093326;28;20020;-76
2023/08/04 08:38:11;;;;;;;5.57;2.17;;;;;;;;;;5093294;28;20034;-76
2023/08/04 08:40:36;;;;;;;4.32;2.10;;;;;;;;;;5090506;28;20031;-76
2023/08/04 08:43:02;;;;;;;5.85;1.80;;;;;;;;;;5092455;28;20024;-76
2023/08/04 08:45:28;;;;;;;6.05;1.90;;;;;;;;;;5079050;28;20444;-77
2023/08/04 08:47:55;;;;;;;4.53;1.60;;;;;;;;;;5089743;28;20023;-77
2023/08/04 08:50:25;;;;;;;5.68;2.00;;;;;;;;;;5106637;28;20077;-77
2023/08/04 08:53:09;;;;;;;4.78;1.80;;;;;;;;;;5091842;28;20496;-77
2023/08/04 08:55:36;;;;;;;8.40;1.70;;;;;;;;;;5081736;28;20028;-76
2023/08/04 08:58:02;;;;;;;5.53;1.60;;;;;;;;;;5088035;28;20016;-76
2023/08/04 09:00:28;;;;;;;6.25;1.50;;;;;;;;;;5104510;28;20093;-77
2023/08/04 09:02:55;;;;;;;4.60;1.70;;;;;;;;;;5095679;28;20060;-76
2023/08/04 09:05:21;;;;;;;7.07;1.65;;;;;;;;;;5093594;28;20055;-76
2023/08/04 09:07:50;;;;;;;6.82;2.17;;;;;;;;;;5093749;28;20025;-77
2023/08/04 09:10:15;;;;;;;7.30;2.30;;;;;;;;;;5101678;28;20016;-76
2023/08/04 09:12:44;;;;;;;4.30;2.10;;;;;;;;;;5089031;28;20437;-76
2023/08/04 09:15:10;;;;;;;7.32;2.72;;;;;;;;;;5097113;28;20487;-77
2023/08/04 09:17:37;;;;;;;5.03;2.35;;;;;;;;;;5093533;28;20020;-77
2023/08/04 09:20:05;;;;;;;6.20;1.75;;;;;;;;;;5088135;28;20027;-76
2023/08/04 09:22:35;;;;;;;2.72;1.38;;;;;;;;;;5088738;28;20464;-77
2023/08/04 09:25:03;;;;;;;14.10;2.58;;;;;;;;;;5098377;28;20114;-77
2023/08/04 09:27:37;;;;;;;2.95;1.20;;;;;;;;;;5083559;28;20070;-76
2023/08/04 09:30:06;;;;;;;2.42;1.20;;;;;;;;;;5082585;28;20019;-76
2023/08/04 09:32:41;;;;;;;2.60;1.17;;;;;;;;;;5078266;28;20499;-76
2023/08/04 09:35:07;;;;;;;3.28;1.30;;;;;;;;;;5087874;28;20066;-76
2023/08/04 09:37:34;;;;;;;3.28;1.10;;;;;;;;;;5096423;28;20099;-76
2023/08/04 09:40:04;;;;;;;1.95;1.10;;;;;;;;;;5090295;28;20100;-76
2023/08/04 09:42:35;;;;;;;3.30;1.25;;;;;;;;;;5089280;28;20345;-76
2023/08/04 09:45:01;;;;;;;2.83;1.50;;;;;;;;;;5084069;28;20029;-76
2023/08/04 09:47:27;;;;;;;4.05;1.52;;;;;;;;;;5096612;28;20022;-76
2023/08/04 09:49:54;;;;;;;5.95;1.65;;;;;;;;;;5083951;28;20020;-76
2023/08/04 09:52:24;;;;;;;7.15;2.00;;;;;;;;;;5091200;28;20097;-76
2023/08/04 09:54:51;;;;;;;5.15;1.92;;;;;;;;;;5095021;28;20085;-75
2023/08/04 09:57:17;;;;;;;3.65;2.00;;;;;;;;;;5092501;28;20024;-76
2023/08/04 09:59:42;;;;;;;3.78;1.75;;;;;;;;;;5078827;28;20094;-76
2023/08/04 10:02:08;;;;;;;4.75;1.63;;;;;;;;;;5087692;28;20475;-76
2023/08/04 10:04:35;;;;;;;6.10;1.80;;;;;;;;;;5094045;28;20051;-76
2023/08/04 10:07:02;;;;;;;3.85;1.70;;;;;;;;;;5092776;28;20039;-76
2023/08/04 10:09:30;;;;;;;4.15;1.50;;;;;;;;;;5087410;28;20472;-76
2023/08/04 10:11:56;;;;;;;3.20;1.40;;;;;;;;;;5089637;28;20032;-77
2023/08/04 10:14:21;;;;;;;3.22;1.58;;;;;;;;;;5087059;28;20024;-77
2023/08/04 10:16:47;;;;;;;3.22;1.90;;;;;;;;;;5098279;28;20023;-76
2023/08/04 10:19:13;;;;;;;4.20;1.92;;;;;;;;;;5093017;28;20491;-76
2023/08/04 10:21:40;;;;;;;3.30;1.70;;;;;;;;;;5092466;28;20035;-76
2023/08/04 10:24:08;;;;;;;3.30;1.85;;;;;;;;;;5091034;28;20474;-77
2023/08/04 10:26:42;;;;;;;3.22;1.90;;;;;;;;;;5084592;28;20016;-76
2023/08/04 10:29:08;;;;;;;5.15;2.35;;;;;;;;;;5093793;28;20024;-76
2023/08/04 10:31:56;;;;;;;5.32;2.15;;;;;;;;;;5087449;28;20024;-77
2023/08/04 10:34:27;;;;;;;6.50;2.00;;;;;;;;;;5085656;28;20036;-76
2023/08/04 10:37:00;;;;;;;5.47;2.13;;;;;;;;;;5090670;28;20491;-76
2023/08/04 10:39:40;;;;;;;6.63;2.05;;;;;;;;;;5091947;28;20092;-76
2023/08/04 10:42:11;;;;;;;4.72;1.65;;;;;;;;;;5103174;28;20024;-76
2023/08/04 10:45:15;;;;;;;4.65;1.60;;;;;;;;;;5092069;28;20115;-76
2023/08/04 10:47:46;;;;;;;3.38;1.80;;;;;;;;;;5088699;28;20036;-76
2023/08/04 10:50:15;;;;;;;6.25;2.03;;;;;;;;;;5091781;28;20475;-77
2023/08/04 10:52:41;;;;;;;4.70;1.92;;;;;;;;;;5097826;28;20032;-76
2023/08/04 10:55:09;;;;;;;4.80;1.60;;;;;;;;;;5089459;28;20544;-76
2023/08/04 10:57:37;;;;;;;5.07;1.65;;;;;;;;;;5088414;28;20491;-77
2023/08/04 11:00:08;;;;;;;5.18;1.92;;;;;;;;;;5091754;28;20044;-77
2023/08/04 11:02:35;;;;;;;3.67;1.60;;;;;;;;;;5088080;28;20098;-76
2023/08/04 11:05:01;;;;;;;5.28;1.60;;;;;;;;;;5091785;28;20095;-76
2023/08/04 11:07:27;;;;;;;5.07;1.80;;;;;;;;;;5092234;28;20020;-76
2023/08/04 11:09:53;;;;;;;3.08;1.65;;;;;;;;;;5083067;28;20020;-76
2023/08/04 11:12:19;;;;;;;5.35;1.60;;;;;;;;;;5083058;28;20112;-76
2023/08/04 11:14:45;;;;;;;4.78;1.92;;;;;;;;;;5091708;28;20110;-77
2023/08/04 11:17:15;;;;;;;7.95;1.88;;;;;;;;;;5091382;28;20026;-76
2023/08/04 11:19:46;;;;;;;5.93;1.60;;;;;;;;;;5094716;28;20030;-77
2023/08/04 11:22:14;;;;;;;4.70;1.75;;;;;;;;;;5086002;28;20111;-76
2023/08/04 11:24:40;;;;;;;4.68;1.67;;;;;;;;;;5095015;28;20016;-76
2023/08/04 11:27:06;;;;;;;3.40;1.20;;;;;;;;;;5099801;28;20015;-77
2023/08/04 11:29:32;;;;;;;3.15;1.40;;;;;;;;;;5089133;28;20042;-77
2023/08/04 11:31:57;;;;;;;4.03;1.38;;;;;;;;;;5090936;28;20028;-78
2023/08/04 11:34:23;;;;;;;3.92;1.35;;;;;;;;;;5093366;28;20027;-77
2023/08/04 11:36:49;;;;;;;5.68;1.95;;;;;;;;;;5096106;28;20051;-78
2023/08/04 11:39:14;;;;;;;20.75;2.97;;;;;;;;;;5096143;28;20512;-78
2023/08/04 11:41:42;;;;;;;4.90;1.40;;;;;;;;;;5091340;28;20108;-77
2023/08/04 11:44:08;;;;;;;5.25;1.40;;;;;;;;;;5087874;28;20031;-76
2023/08/04 11:46:33;;;;;;;2.70;1.38;;;;;;;;;;5081127;28;20384;-76
2023/08/04 11:49:03;;;;;;;2.83;1.10;;;;;;;;;;5088402;28;20024;-76
2023/08/04 11:51:29;;;;;;;3.88;1.20;;;;;;;;;;5085259;28;20024;-76
2023/08/04 11:53:54;;;;;;;3.58;1.35;;;;;;;;;;5093560;28;20020;-76
2023/08/04 11:56:20;;;;;;;3.88;1.25;;;;;;;;;;5091296;28;20021;-76
2023/08/04 11:58:45;;;;;;;4.43;1.40;;;;;;;;;;5089572;28;20051;-76
2023/08/04 12:01:29;;;;;;;2.85;1.15;;;;;;;;;;5082930;28;20028;-76
2023/08/04 12:03:55;;;;;;;5.90;1.40;;;;;;;;;;5097006;28;20019;-77
2023/08/04 12:06:22;;;;;;;3.97;2.03;;;;;;;;;;5098425;28;20089;-76
2023/08/04 12:08:54;;;;;;;3.78;1.85;;;;;;;;;;5085841;28;20392;-76
2023/08/04 12:11:21;;;;;;;3.40;1.40;;;;;;;;;;5090021;28;20031;-76
2023/08/04 12:13:47;;;;;;;6.20;1.55;;;;;;;;;;5095609;28;20036;-77
2023/08/04 12:16:13;;;;;;;3.00;1.60;;;;;;;;;;5087942;28;20024;-77
2023/08/04 12:18:39;;;;;;;4.13;1.30;;;;;;;;;;5097709;28;20030;-76
2023/08/04 12:21:05;;;;;;;3.25;1.48;;;;;;;;;;5094941;28;20024;-76
2023/08/04 12:23:31;;;;;;;4.10;1.60;;;;;;;;;;5093985;28;20547;-76
2023/08/04 12:25:56;;;;;;;5.50;2.33;;;;;;;;;;5086439;28;20035;-76
2023/08/04 12:28:22;;;;;;;4.28;1.77;;;;;;;;;;5094166;28;20476;-77
2023/08/04 12:30:48;;;;;;;4.78;1.98;;;;;;;;;;5094395;28;20016;-76
2023/08/04 12:33:15;;;;;;;3.97;2.05;;;;;;;;;;5094394;28;20035;-76
2023/08/04 12:35:40;;;;;;;4.10;1.80;;;;;;;;;;5092885;28;20055;-76
2023/08/04 12:38:05;;;;;;;5.35;2.10;;;;;;;;;;5095672;28;20078;-76
2023/08/04 12:40:31;;;;;;;6.32;2.00;;;;;;;;;;5095161;28;20023;-75
2023/08/04 12:42:57;;;;;;;4.35;2.03;;;;;;;;;;5094308;28;20068;-77
2023/08/04 12:45:22;;;;;;;6.97;2.22;;;;;;;;;;5095165;28;20103;-76
2023/08/04 12:47:48;;;;;;;5.05;1.63;;;;;;;;;;5093844;28;20140;-75
2023/08/04 12:50:13;;;;;;;5.65;1.60;;;;;;;;;;5090942;28;20024;-75
2023/08/04 12:52:39;;;;;;;3.95;1.17;;;;;;;;;;5094071;28;20396;-76
2023/08/04 12:55:05;;;;;;;5.15;1.20;;;;;;;;;;5097731;28;20023;-86
2023/08/04 12:57:30;;;;;;;2.90;1.23;;;;;;;;;;5098274;28;20107;-86
2023/08/04 12:59:55;;;;;;;5.30;1.25;;;;;;;;;;5090879;28;20113;-85
2023/08/04 13:02:21;;;;;;;4.10;1.17;;;;;;;;;;5086543;28;20462;-85
2023/08/04 13:04:46;;;;;;;2.45;1.10;;;;;;;;;;5086134;28;20035;-87
2023/08/04 13:07:12;;;;;;;6.78;1.50;;;;;;;;;;5103993;28;20016;-85
2023/08/04 13:09:37;;;;;;;2.13;1.15;;;;;;;;;;5094680;28;20369;-87
2023/08/04 13:12:03;;;;;;;2.83;1.30;;;;;;;;;;5095330;28;20434;-85
2023/08/04 13:14:28;;;;;;;3.15;1.13;;;;;;;;;;5093689;28;20024;-86
2023/08/04 13:16:54;;;;;;;2.28;1.13;;;;;;;;;;5093836;28;20016;-86
2023/08/04 13:19:19;;;;;;;6.38;1.38;;;;;;;;;;5086481;28;20052;-82
2023/08/04 13:21:44;;;;;;;2.72;1.20;;;;;;;;;;5093665;28;20024;-85
2023/08/04 13:24:11;;;;;;;3.20;1.33;;;;;;;;;;5085177;28;20024;-86
2023/08/04 13:26:37;;;;;;;4.38;1.20;;;;;;;;;;5095056;28;20016;-86
2023/08/04 13:29:02;;;;;;;4.18;1.10;;;;;;;;;;5095151;28;20027;-86
2023/08/04 13:31:28;;;;;;;2.47;1.10;;;;;;;;;;5091678;28;20070;-86
2023/08/04 13:33:53;;;;;;;3.22;1.10;;;;;;;;;;5093234;28;20035;-86
2023/08/04 13:36:19;;;;;;;2.00;1.10;;;;;;;;;;5086440;28;20024;-84
2023/08/04 13:38:44;;;;;;;2.72;1.10;;;;;;;;;;5093536;28;20035;-87
2023/08/04 13:41:09;;;;;;;2.28;1.10;;;;;;;;;;5084926;28;20051;-86
2023/08/04 13:43:35;;;;;;;2.42;1.13;;;;;;;;;;5081653;28;20020;-87
2023/08/04 13:46:00;;;;;;;6.10;1.15;;;;;;;;;;5085738;28;20077;-85
2023/08/04 13:48:26;;;;;;;4.20;1.10;;;;;;;;;;5089524;28;20106;-87
2023/08/04 13:50:51;;;;;;;2.15;0.98;;;;;;;;;;5087585;28;20054;-86
2023/08/04 13:53:16;;;;;;;2.50;1.20;;;;;;;;;;5092157;28;20020;-85
2023/08/04 13:55:42;;;;;;;2.97;1.20;;;;;;;;;;5094528;28;20028;-87
2023/08/04 13:58:07;;;;;;;1.60;0.95;;;;;;;;;;5090923;28;20032;-86
2023/08/04 14:00:33;;;;;;;1.73;1.10;;;;;;;;;;5094172;28;20047;-86
2023/08/04 14:02:58;;;;;;;2.70;1.00;;;;;;;;;;5089363;28;20537;-86
2023/08/04 14:05:23;;;;;;;2.25;0.90;;;;;;;;;;5086712;28;20043;-76
2023/08/04 14:07:49;;;;;;;3.50;0.80;;;;;;;;;;5079008;28;20051;-76
2023/08/04 14:10:14;;;;;;;1.73;0.85;;;;;;;;;;5087660;28;20055;-76
2023/08/04 14:12:39;;;;;;;2.85;1.35;;;;;;;;;;5089630;28;20028;-75
2023/08/04 14:15:06;;;;;;;2.80;0.90;;;;;;;;;;5090623;28;20032;-76
2023/08/04 14:17:31;;;;;;;2.60;1.10;;;;;;;;;;5090885;28;20016;-75
2023/08/04 14:19:57;;;;;;;3.33;1.00;;;;;;;;;;5085825;28;20495;-76
2023/08/04 14:22:22;;;;;;;4.45;1.10;;;;;;;;;;5091078;28;20081;-76
2023/08/04 14:24:49;;;;;;;2.00;0.95;;;;;;;;;;5093770;28;20027;-75
2023/08/04 14:27:14;;;;;;;1.85;0.88;;;;;;;;;;5092899;28;20022;-76
2023/08/04 14:29:40;;;;;;;3.55;1.17;;;;;;;;;;5076897;28;20112;-76
2023/08/04 14:32:05;;;;;;;1.95;1.10;;;;;;;;;;5097842;28;20024;-76
2023/08/04 14:34:31;;;;;;;2.28;1.00;;;;;;;;;;5088748;28;20089;-76
2023/08/04 14:36:56;;;;;;;2.70;1.00;;;;;;;;;;5097149;28;20024;-76
2023/08/04 14:39:21;;;;;;;3.92;1.30;;;;;;;;;;5099158;28;20073;-76